VISIB

Not for real navigation. The accuracy of this data is not assured See disclaimer for more information



ICAO NAME COUNTRY WIND Kt GUST Kt VIS m TEMP/DEW C BARO METAR
LIVR Passo Rolle Italy 9 0 100 11/9 30.27 LIVR 192055Z 13009KT 0100 FG VV/// 11/09 Q1025 RMK MON INVIS VIS MIN 0100
EKRK Koebenhavn / Roskilde Denmark 1 0 150 15/15 29.94 EKRK 192220Z AUTO 31001KT 0150 R11/0450U R29/0750N FG VV002 15/15 Q1014
LEVX Vigo / Peinador Spain 4 0 150 16/16 30.00 LEVX 192200Z 28004KT 200V350 0150 R19/0900U R01/0450N FG VV001 16/16 Q1016 NOSIG
ENNE 15 0 150 11/11 29.85 ENNE 192220Z AUTO 24015KT 0150NDV -RA NCD 11/11 Q1011 W///S3
YBRM Broome Airport Australia 0 0 150 16/15 29.97 YBRM 192230Z AUTO 00000KT 0150 -SHRA OVC001 16/15 Q1015

Show more